createdAt,value
2019-01-31T00:01:54.912Z,31.77
2019-01-31T00:04:22.636Z,30.60
2019-01-31T00:06:50.277Z,29.93
2019-01-31T00:09:18.271Z,27.27
2019-01-31T00:11:45.907Z,31.77
2019-01-31T00:14:13.944Z,32.60
2019-01-31T00:16:41.978Z,33.27
2019-01-31T00:19:10.249Z,26.60
2019-01-31T00:21:38.214Z,28.53
2019-01-31T00:24:06.197Z,32.30
2019-01-31T00:26:34.153Z,26.67
2019-01-31T00:29:02.137Z,29.33
2019-01-31T00:31:30.113Z,27.87
2019-01-31T00:33:58.064Z,37.83
2019-01-31T00:36:26.035Z,28.33
2019-01-31T00:38:56.812Z,27.87
2019-01-31T00:41:23.016Z,29.57
2019-01-31T00:43:50.968Z,30.10
2019-01-31T00:46:18.935Z,31.17
2019-01-31T00:48:46.568Z,30.63
2019-01-31T00:51:14.480Z,28.57
2019-01-31T00:53:42.443Z,27.17
2019-01-31T00:56:10.407Z,31.83
2019-01-31T00:58:38.485Z,26.73
2019-01-31T01:01:06.457Z,28.00
2019-01-31T01:03:36.813Z,32.77
2019-01-31T01:06:04.131Z,28.60
2019-01-31T01:08:31.856Z,30.03
2019-01-31T01:10:59.760Z,30.87
2019-01-31T01:13:27.739Z,27.23
2019-01-31T01:15:55.717Z,31.70
2019-01-31T01:18:23.342Z,33.23
2019-01-31T01:20:50.989Z,27.90
2019-01-31T01:23:18.895Z,27.90
2019-01-31T01:25:46.530Z,25.83
2019-01-31T01:28:14.522Z,32.33
2019-01-31T01:30:42.490Z,26.40
2019-01-31T01:33:10.587Z,28.90
2019-01-31T01:35:38.538Z,30.93
2019-01-31T01:38:06.196Z,30.67
2019-01-31T01:40:33.842Z,31.63
2019-01-31T01:43:01.831Z,27.57
2019-01-31T01:45:29.473Z,28.73
2019-01-31T01:47:57.468Z,30.63
2019-01-31T01:50:25.436Z,30.80
2019-01-31T01:52:53.402Z,28.13
2019-01-31T01:55:21.061Z,31.93
2019-01-31T01:57:48.698Z,28.43
2019-01-31T02:00:16.700Z,29.63
2019-01-31T02:02:44.798Z,29.77
2019-01-31T02:05:12.759Z,28.50
2019-01-31T02:07:40.731Z,28.03
2019-01-31T02:10:08.678Z,37.00
2019-01-31T02:12:36.647Z,30.43
2019-01-31T02:15:04.621Z,31.30
2019-01-31T02:17:32.293Z,32.73
2019-01-31T02:20:00.361Z,30.33
2019-01-31T02:22:27.967Z,28.33
2019-01-31T02:24:55.875Z,26.60
2019-01-31T02:27:23.860Z,37.13
2019-01-31T02:29:51.828Z,31.83
2019-01-31T02:32:19.474Z,30.60
2019-01-31T02:34:47.361Z,30.13
2019-01-31T02:37:15.334Z,27.90
2019-01-31T02:39:43.559Z,34.70
2019-01-31T02:42:11.243Z,31.67
2019-01-31T02:44:39.392Z,34.30
2019-01-31T02:47:07.406Z,32.00
2019-01-31T02:49:35.371Z,30.87
2019-01-31T02:52:03.345Z,31.27
2019-01-31T02:54:30.989Z,29.60
2019-01-31T02:56:59.008Z,33.73
2019-01-31T02:59:26.944Z,30.90
2019-01-31T03:01:54.912Z,32.00
2019-01-31T03:04:22.885Z,32.33
2019-01-31T03:06:50.849Z,31.53
2019-01-31T03:09:18.827Z,34.63
2019-01-31T03:11:46.796Z,32.70
2019-01-31T03:14:14.449Z,34.53
2019-01-31T03:16:42.081Z,33.57
2019-01-31T03:19:10.006Z,37.23
2019-01-31T03:21:38.261Z,27.90
2019-01-31T03:24:06.251Z,29.47
2019-01-31T03:26:34.204Z,35.00
2019-01-31T03:29:01.865Z,29.13
2019-01-31T03:31:30.088Z,32.17
2019-01-31T03:33:58.219Z,30.67
2019-01-31T03:36:25.874Z,32.33
2019-01-31T03:38:53.851Z,28.97
2019-01-31T03:41:21.506Z,30.80
2019-01-31T03:43:49.479Z,35.07
2019-01-31T03:46:17.134Z,32.30
2019-01-31T03:48:45.120Z,35.77
2019-01-31T03:51:12.773Z,29.63
2019-01-31T03:53:40.421Z,33.87
2019-01-31T03:56:08.420Z,33.17
2019-01-31T03:58:36.081Z,33.77
2019-01-31T04:01:03.825Z,33.70
2019-01-31T04:03:32.592Z,30.67
2019-01-31T04:06:00.338Z,33.57
2019-01-31T04:08:28.257Z,32.23
2019-01-31T04:10:55.914Z,31.77
2019-01-31T04:13:23.543Z,26.23
2019-01-31T04:15:51.574Z,36.43
2019-01-31T04:18:19.236Z,35.50
2019-01-31T04:20:46.885Z,32.67
2019-01-31T04:23:14.841Z,31.50
2019-01-31T04:25:42.487Z,37.17
2019-01-31T04:28:10.489Z,32.67
2019-01-31T04:30:38.447Z,35.87
2019-01-31T04:33:06.092Z,33.40
2019-01-31T04:35:34.093Z,28.80
2019-01-31T04:38:02.043Z,32.03
2019-01-31T04:40:31.695Z,34.77
2019-01-31T04:42:59.943Z,37.77
2019-01-31T04:45:28.022Z,33.93
2019-01-31T04:47:56.546Z,38.03
2019-01-31T04:50:24.285Z,36.17
2019-01-31T04:52:52.217Z,36.10
2019-01-31T04:55:19.939Z,35.90
2019-01-31T04:57:47.945Z,36.17
2019-01-31T05:00:15.940Z,37.60
2019-01-31T05:02:43.625Z,32.97
2019-01-31T05:05:11.547Z,36.20
2019-01-31T05:07:39.519Z,35.27
2019-01-31T05:10:07.492Z,33.37
2019-01-31T05:12:35.455Z,32.87
2019-01-31T05:15:03.086Z,34.67
2019-01-31T05:17:30.992Z,36.20
2019-01-31T05:19:58.620Z,34.23
2019-01-31T05:22:26.627Z,36.67
2019-01-31T05:24:54.330Z,34.57
2019-01-31T05:27:21.972Z,30.43
2019-01-31T05:29:49.916Z,35.57
2019-01-31T05:32:17.550Z,38.53
2019-01-31T05:34:45.458Z,37.77
2019-01-31T05:37:13.084Z,33.97
2019-01-31T05:39:40.990Z,35.73
2019-01-31T05:42:08.941Z,38.27
2019-01-31T05:44:36.574Z,36.13
2019-01-31T05:47:04.212Z,37.40
2019-01-31T05:49:31.844Z,34.63
2019-01-31T05:51:59.862Z,33.43
2019-01-31T05:54:27.436Z,35.07
2019-01-31T05:56:55.071Z,37.00
2019-01-31T05:59:22.995Z,36.30
2019-01-31T06:01:50.962Z,36.93
2019-01-31T06:04:18.935Z,38.43
2019-01-31T06:06:46.585Z,41.83
2019-01-31T06:09:14.206Z,35.17
2019-01-31T06:11:42.131Z,36.07
2019-01-31T06:14:09.770Z,36.47
2019-01-31T06:16:37.755Z,33.33
2019-01-31T06:19:05.743Z,32.80
2019-01-31T06:21:33.376Z,35.10
2019-01-31T06:24:01.354Z,39.63
2019-01-31T06:26:28.984Z,40.90
2019-01-31T06:28:56.883Z,35.93
2019-01-31T06:31:24.853Z,38.03
2019-01-31T06:33:52.826Z,31.67
2019-01-31T06:36:20.795Z,34.27
2019-01-31T06:38:48.766Z,34.70
2019-01-31T06:41:18.782Z,39.47
2019-01-31T06:43:45.812Z,35.70
2019-01-31T06:46:13.692Z,46.47
2019-01-31T06:48:41.664Z,45.03
2019-01-31T06:51:09.354Z,43.63
2019-01-31T06:53:37.298Z,39.57
2019-01-31T06:56:04.930Z,40.57
2019-01-31T06:58:32.571Z,47.77
2019-01-31T07:01:00.487Z,42.10
2019-01-31T07:03:28.117Z,50.40
2019-01-31T07:05:56.018Z,34.30
2019-01-31T07:08:23.986Z,40.33
2019-01-31T07:10:51.957Z,38.07
2019-01-31T07:13:19.967Z,36.13
2019-01-31T07:15:47.895Z,39.87
2019-01-31T07:18:15.862Z,41.50
2019-01-31T07:20:43.483Z,48.23
2019-01-31T07:23:11.407Z,43.47
2019-01-31T07:25:39.025Z,46.30
2019-01-31T07:28:06.666Z,41.57
2019-01-31T07:30:34.589Z,35.33
2019-01-31T07:33:02.574Z,40.93
2019-01-31T07:35:30.202Z,40.17
2019-01-31T07:37:57.836Z,43.93
2019-01-31T07:40:25.749Z,37.83
2019-01-31T07:42:54.639Z,35.77
2019-01-31T07:45:22.279Z,39.33
2019-01-31T07:47:50.277Z,42.97
2019-01-31T07:50:17.916Z,37.33
2019-01-31T07:52:45.800Z,39.17
2019-01-31T07:55:13.431Z,37.90
2019-01-31T07:57:41.055Z,38.83
2019-01-31T08:00:08.993Z,36.83
2019-01-31T08:02:36.967Z,39.37
2019-01-31T08:05:04.930Z,32.83
2019-01-31T08:07:32.900Z,40.53
2019-01-31T08:10:00.870Z,42.10
2019-01-31T08:12:28.511Z,38.60
2019-01-31T08:14:56.404Z,38.33
2019-01-31T08:17:24.373Z,41.73
2019-01-31T08:19:52.343Z,44.87
2019-01-31T08:22:20.023Z,46.80
2019-01-31T08:24:47.971Z,36.17
2019-01-31T08:27:15.942Z,41.90
2019-01-31T08:29:43.913Z,43.33
2019-01-31T08:32:11.530Z,38.73
2019-01-31T08:34:39.460Z,37.80
2019-01-31T08:37:07.089Z,45.27
2019-01-31T08:39:34.717Z,38.13
2019-01-31T08:42:03.824Z,37.30
2019-01-31T08:44:31.654Z,40.20
2019-01-31T08:46:59.271Z,36.53
2019-01-31T08:49:26.898Z,35.97
2019-01-31T08:51:54.818Z,40.03
2019-01-31T08:54:22.459Z,43.00
2019-01-31T08:56:50.362Z,40.60
2019-01-31T08:59:18.330Z,42.00
2019-01-31T09:01:46.287Z,37.13
2019-01-31T09:04:14.258Z,34.87
2019-01-31T09:06:41.882Z,38.23
2019-01-31T09:09:09.507Z,35.67
2019-01-31T09:11:37.139Z,41.23
2019-01-31T09:14:05.418Z,35.90
2019-01-31T09:16:33.388Z,37.93
2019-01-31T09:19:04.053Z,37.57
2019-01-31T09:21:30.753Z,37.43
2019-01-31T09:23:58.384Z,32.97
2019-01-31T09:26:26.289Z,36.37
2019-01-31T09:28:54.257Z,33.13
2019-01-31T09:31:22.233Z,31.90
2019-01-31T09:33:49.874Z,36.97
2019-01-31T09:36:17.504Z,36.20
2019-01-31T09:38:45.439Z,39.37
2019-01-31T09:41:13.392Z,35.67
2019-01-31T09:43:41.365Z,34.10
2019-01-31T09:46:08.990Z,38.97
2019-01-31T09:48:36.891Z,37.37
2019-01-31T09:51:04.861Z,37.10
2019-01-31T09:53:32.831Z,36.20
2019-01-31T09:56:00.814Z,30.87
2019-01-31T09:58:28.443Z,36.47
2019-01-31T10:00:56.354Z,36.83
2019-01-31T10:03:24.302Z,33.97
2019-01-31T10:05:51.934Z,27.93
2019-01-31T10:08:19.561Z,33.53
2019-01-31T10:10:47.566Z,33.97
2019-01-31T10:13:15.354Z,34.07
2019-01-31T10:15:43.361Z,29.07
2019-01-31T10:18:11.378Z,32.27
2019-01-31T10:20:39.125Z,33.23
2019-01-31T10:23:06.770Z,34.00
2019-01-31T10:25:35.828Z,33.60
2019-01-31T10:28:03.790Z,26.70
2019-01-31T10:30:31.783Z,30.93
2019-01-31T10:32:59.729Z,25.50
2019-01-31T10:35:27.366Z,31.07
2019-01-31T10:37:55.008Z,27.43
2019-01-31T10:40:22.931Z,26.20
2019-01-31T10:42:52.362Z,25.67
2019-01-31T10:45:22.800Z,30.47
2019-01-31T10:47:49.340Z,25.90
2019-01-31T10:50:16.976Z,22.97
2019-01-31T10:52:44.923Z,19.53
2019-01-31T10:55:12.561Z,21.83
2019-01-31T10:57:40.559Z,23.10
2019-01-31T11:00:14.442Z,24.23
2019-01-31T11:02:42.340Z,27.57
2019-01-31T11:05:10.317Z,21.87
2019-01-31T11:07:38.267Z,24.27
2019-01-31T11:10:06.258Z,24.33
2019-01-31T11:12:34.205Z,24.03
2019-01-31T11:15:01.903Z,23.17
2019-01-31T11:17:29.525Z,23.90
2019-01-31T11:19:57.520Z,20.67
2019-01-31T11:22:25.582Z,24.43
2019-01-31T11:24:53.214Z,21.77
2019-01-31T11:27:21.103Z,19.43
2019-01-31T11:29:48.732Z,20.97
2019-01-31T11:32:16.627Z,18.00
2019-01-31T11:34:44.622Z,23.13
2019-01-31T11:37:12.300Z,17.93
2019-01-31T11:39:40.242Z,22.23
2019-01-31T11:42:07.859Z,20.20
2019-01-31T11:44:37.962Z,22.23
2019-01-31T11:47:05.091Z,17.97
2019-01-31T11:49:33.035Z,17.93
2019-01-31T11:52:01.022Z,20.87
2019-01-31T11:54:28.650Z,21.80
2019-01-31T11:57:05.328Z,23.13
2019-01-31T11:59:25.936Z,16.77
2019-01-31T12:01:53.905Z,21.90
2019-01-31T12:04:21.526Z,17.07
2019-01-31T12:06:49.152Z,16.63
2019-01-31T12:09:17.096Z,19.07
2019-01-31T12:11:45.069Z,17.67
2019-01-31T12:14:13.033Z,21.23
2019-01-31T12:16:41.008Z,19.70
2019-01-31T12:19:08.868Z,16.47
2019-01-31T12:21:36.507Z,17.77
2019-01-31T12:24:04.403Z,17.03
2019-01-31T12:26:32.034Z,16.53
2019-01-31T12:28:59.927Z,13.97
2019-01-31T12:31:27.554Z,17.27
2019-01-31T12:33:55.462Z,16.80
2019-01-31T12:36:23.086Z,15.60
2019-01-31T12:38:50.701Z,14.27
2019-01-31T12:41:18.653Z,21.27
2019-01-31T12:43:46.624Z,14.30
2019-01-31T12:46:14.596Z,16.13
2019-01-31T12:48:42.566Z,21.37
2019-01-31T12:51:10.539Z,13.90
2019-01-31T12:53:38.505Z,19.50
2019-01-31T12:56:06.472Z,16.10
2019-01-31T12:58:34.117Z,17.97
2019-01-31T13:01:02.001Z,16.13
2019-01-31T13:03:29.971Z,18.60
2019-01-31T13:05:57.602Z,18.37
2019-01-31T13:08:25.225Z,14.30
2019-01-31T13:10:52.840Z,16.00
2019-01-31T13:13:20.727Z,18.47
2019-01-31T13:15:48.586Z,16.00
2019-01-31T13:18:16.208Z,17.03
2019-01-31T13:20:43.834Z,16.87
2019-01-31T13:23:11.444Z,18.07
2019-01-31T13:25:39.063Z,13.57
2019-01-31T13:28:06.677Z,14.50
2019-01-31T13:30:34.301Z,15.10
2019-01-31T13:33:02.232Z,13.80
2019-01-31T13:35:30.199Z,14.33
2019-01-31T13:37:58.169Z,15.80
2019-01-31T13:40:26.143Z,17.47
2019-01-31T13:42:54.099Z,17.53
2019-01-31T13:45:21.712Z,22.40
2019-01-31T13:47:49.747Z,17.97
2019-01-31T13:50:17.709Z,18.90
2019-01-31T13:52:45.681Z,18.23
2019-01-31T13:55:13.297Z,15.63
2019-01-31T13:57:40.925Z,19.93
2019-01-31T14:00:08.981Z,17.03
2019-01-31T14:02:36.614Z,18.07
2019-01-31T14:05:04.504Z,16.63
2019-01-31T14:07:32.125Z,17.83
2019-01-31T14:10:00.035Z,15.80
2019-01-31T14:12:28.002Z,14.47
2019-01-31T14:14:55.624Z,17.87
2019-01-31T14:17:23.550Z,21.97
2019-01-31T14:19:51.500Z,12.40
2019-01-31T14:22:19.469Z,15.00
2019-01-31T14:24:47.437Z,14.43
2019-01-31T14:27:15.070Z,14.07
2019-01-31T14:29:42.701Z,18.03
2019-01-31T14:32:10.637Z,14.47
2019-01-31T14:34:38.600Z,16.23
2019-01-31T14:37:06.568Z,14.10
2019-01-31T14:39:34.535Z,16.17
2019-01-31T14:42:02.203Z,11.50
2019-01-31T14:44:30.069Z,11.87
2019-01-31T14:46:57.713Z,11.30
2019-01-31T14:49:25.379Z,14.80
2019-01-31T14:51:53.365Z,11.03
2019-01-31T14:54:21.236Z,13.80
2019-01-31T14:56:48.866Z,17.27
2019-01-31T14:59:16.763Z,20.20
2019-01-31T15:01:44.727Z,25.47
2019-01-31T15:04:12.701Z,19.97
2019-01-31T15:06:40.334Z,19.17
2019-01-31T15:09:08.782Z,26.33
2019-01-31T15:11:36.813Z,23.50
2019-01-31T15:14:04.437Z,21.30
2019-01-31T15:16:32.341Z,24.20
2019-01-31T15:19:00.314Z,41.93
2019-01-31T15:21:27.940Z,25.00
2019-01-31T15:23:55.576Z,24.17
2019-01-31T15:26:23.506Z,25.70
2019-01-31T15:28:51.476Z,31.27
2019-01-31T15:31:19.439Z,22.47
2019-01-31T15:33:47.071Z,22.90
2019-01-31T15:36:14.981Z,21.23
2019-01-31T15:38:42.620Z,27.57
2019-01-31T15:41:10.233Z,29.53
2019-01-31T15:43:38.168Z,29.57
2019-01-31T15:46:05.810Z,23.17
2019-01-31T15:48:33.694Z,24.57
2019-01-31T15:51:01.669Z,23.13
2019-01-31T15:53:29.637Z,20.87
2019-01-31T15:55:57.258Z,23.53
2019-01-31T15:58:25.167Z,24.50
2019-01-31T16:00:52.799Z,24.20
2019-01-31T16:03:20.819Z,23.93
2019-01-31T16:05:48.436Z,24.43
2019-01-31T16:08:16.633Z,21.13
2019-01-31T16:10:44.298Z,19.50
2019-01-31T16:13:12.177Z,23.33
2019-01-31T16:15:39.802Z,20.87
2019-01-31T16:18:07.694Z,24.13
2019-01-31T16:20:35.676Z,21.67
2019-01-31T16:23:03.300Z,24.70
2019-01-31T16:25:31.201Z,27.17
2019-01-31T16:27:58.839Z,17.87
2019-01-31T16:30:26.644Z,21.67
2019-01-31T16:32:54.590Z,21.43
2019-01-31T16:35:22.561Z,19.97
2019-01-31T16:37:50.531Z,23.23
2019-01-31T16:40:18.164Z,18.40
2019-01-31T16:42:46.058Z,22.33
2019-01-31T16:45:14.031Z,29.87
2019-01-31T16:47:41.746Z,26.70
2019-01-31T16:50:09.381Z,21.57
2019-01-31T16:52:37.026Z,17.40
2019-01-31T16:55:04.985Z,14.57
2019-01-31T16:57:33.268Z,21.27
2019-01-31T17:00:01.334Z,16.77
2019-01-31T17:02:28.959Z,22.43
2019-01-31T17:04:56.580Z,19.07
2019-01-31T17:07:24.525Z,19.20
2019-01-31T17:09:52.153Z,18.83
2019-01-31T17:12:19.785Z,21.03
2019-01-31T17:14:47.410Z,18.57
2019-01-31T17:17:15.045Z,18.57
2019-01-31T17:19:42.673Z,18.93
2019-01-31T17:22:10.300Z,16.77
2019-01-31T17:24:38.269Z,22.47
2019-01-31T17:27:06.239Z,15.40
2019-01-31T17:29:34.205Z,21.17
2019-01-31T17:32:02.176Z,16.63
2019-01-31T17:34:30.146Z,27.13
2019-01-31T17:36:58.115Z,25.33
2019-01-31T17:39:25.749Z,23.30
2019-01-31T17:41:53.664Z,28.10
2019-01-31T17:44:21.290Z,29.43
2019-01-31T17:46:48.907Z,27.87
2019-01-31T17:49:16.552Z,24.23
2019-01-31T17:51:44.503Z,27.40
2019-01-31T17:54:12.139Z,23.23
2019-01-31T17:56:40.024Z,29.07
2019-01-31T17:59:07.997Z,24.93
2019-01-31T18:01:36.173Z,24.33
2019-01-31T18:04:04.143Z,27.27
2019-01-31T18:06:32.117Z,25.97
2019-01-31T18:08:59.750Z,26.07
2019-01-31T18:11:27.369Z,29.17
2019-01-31T18:13:55.301Z,24.43
2019-01-31T18:16:23.267Z,30.67
2019-01-31T18:18:50.918Z,28.80
2019-01-31T18:21:18.801Z,29.40
2019-01-31T18:23:46.519Z,31.20
2019-01-31T18:26:14.443Z,30.87
2019-01-31T18:28:42.068Z,27.70
2019-01-31T18:31:09.982Z,35.37
2019-01-31T18:33:37.935Z,26.73
2019-01-31T18:36:05.904Z,30.40
2019-01-31T18:38:33.890Z,32.83
2019-01-31T18:41:01.516Z,33.07
2019-01-31T18:43:29.143Z,29.57
2019-01-31T18:45:57.071Z,32.60
2019-01-31T18:48:25.041Z,33.27
2019-01-31T18:50:53.016Z,34.63
2019-01-31T18:53:20.636Z,33.00
2019-01-31T18:55:48.274Z,35.57
2019-01-31T18:58:15.904Z,37.60
2019-01-31T19:00:43.957Z,35.10
2019-01-31T19:03:11.932Z,34.77
2019-01-31T19:05:39.571Z,35.00
2019-01-31T19:08:09.062Z,35.97
2019-01-31T19:10:43.212Z,36.00
2019-01-31T19:13:06.182Z,39.40
2019-01-31T19:15:34.159Z,34.87
2019-01-31T19:18:06.192Z,36.90
2019-01-31T19:20:31.726Z,39.00
2019-01-31T19:22:59.349Z,43.23
2019-01-31T19:25:27.349Z,37.13
2019-01-31T19:27:54.974Z,39.40
2019-01-31T19:30:22.871Z,41.67
2019-01-31T19:32:50.743Z,38.37
2019-01-31T19:35:18.710Z,44.57
2019-01-31T19:37:46.700Z,41.73
2019-01-31T19:40:14.652Z,34.27
2019-01-31T19:42:42.273Z,37.73
2019-01-31T19:45:10.183Z,35.90
2019-01-31T19:47:38.166Z,45.13
2019-01-31T19:50:06.118Z,41.53
2019-01-31T19:52:34.087Z,37.80
2019-01-31T19:55:02.061Z,39.20
2019-01-31T19:57:30.019Z,40.00
2019-01-31T19:59:57.999Z,40.30
2019-01-31T20:02:25.966Z,38.60
2019-01-31T20:04:53.938Z,41.27
2019-01-31T20:07:21.568Z,44.50
2019-01-31T20:09:49.271Z,44.17
2019-01-31T20:12:16.888Z,47.30
2019-01-31T20:14:44.532Z,40.73
2019-01-31T20:17:12.157Z,39.43
2019-01-31T20:19:40.114Z,42.50
2019-01-31T20:22:08.088Z,45.17
2019-01-31T20:24:36.058Z,37.90
2019-01-31T20:27:04.330Z,49.70
2019-01-31T20:29:32.301Z,41.57
2019-01-31T20:31:59.934Z,44.67
2019-01-31T20:34:27.831Z,46.90
2019-01-31T20:36:55.795Z,41.17
2019-01-31T20:39:23.775Z,39.90
2019-01-31T20:41:54.199Z,42.33
2019-01-31T20:44:21.357Z,46.90
2019-01-31T20:46:49.317Z,38.67
2019-01-31T20:49:16.934Z,41.80
2019-01-31T20:51:44.641Z,47.63
2019-01-31T20:54:12.346Z,44.60
2019-01-31T20:56:40.274Z,43.07
2019-01-31T20:59:07.892Z,43.23
2019-01-31T21:01:35.799Z,43.00
2019-01-31T21:04:03.423Z,42.20
2019-01-31T21:06:41.169Z,42.47
2019-01-31T21:09:00.672Z,44.00
2019-01-31T21:11:28.605Z,43.87
2019-01-31T21:13:56.581Z,41.80
2019-01-31T21:16:24.213Z,40.63
2019-01-31T21:18:51.831Z,45.00
2019-01-31T21:21:19.457Z,38.53
2019-01-31T21:23:47.425Z,40.23
2019-01-31T21:26:15.418Z,43.70
2019-01-31T21:28:43.375Z,39.33
2019-01-31T21:31:11.344Z,43.50
2019-01-31T21:33:39.308Z,38.17
2019-01-31T21:36:07.274Z,40.90
2019-01-31T21:38:34.898Z,43.60
2019-01-31T21:41:02.537Z,36.13
2019-01-31T21:43:30.161Z,36.43
2019-01-31T21:45:57.786Z,39.87
2019-01-31T21:48:25.406Z,39.03
2019-01-31T21:50:53.371Z,40.80
2019-01-31T21:53:21.330Z,41.97
2019-01-31T21:55:49.023Z,43.17
2019-01-31T21:58:16.851Z,34.80
2019-01-31T22:00:44.558Z,43.57
2019-01-31T22:03:12.501Z,45.40
2019-01-31T22:05:40.451Z,44.90
2019-01-31T22:08:08.076Z,37.57
2019-01-31T22:10:35.679Z,34.27
2019-01-31T22:13:03.386Z,37.57
2019-01-31T22:15:31.313Z,40.90
2019-01-31T22:18:00.395Z,38.50
2019-01-31T22:20:28.678Z,43.23
2019-01-31T22:22:56.302Z,39.73
2019-01-31T22:25:23.933Z,41.33
2019-01-31T22:27:51.568Z,32.63
2019-01-31T22:30:19.535Z,43.17
2019-01-31T22:32:47.509Z,39.83
2019-01-31T22:35:15.476Z,42.50
2019-01-31T22:37:43.751Z,36.13
2019-01-31T22:40:11.717Z,43.97
2019-01-31T22:42:39.688Z,39.43
2019-01-31T22:45:07.677Z,35.23
2019-01-31T22:47:35.628Z,36.40
2019-01-31T22:50:03.492Z,40.10
2019-01-31T22:52:31.142Z,36.37
2019-01-31T22:54:59.041Z,33.97
2019-01-31T22:57:26.675Z,33.07
2019-01-31T22:59:54.297Z,32.47
2019-01-31T23:02:22.236Z,32.20
2019-01-31T23:04:49.862Z,35.87
2019-01-31T23:07:17.491Z,31.27
2019-01-31T23:09:45.526Z,37.27
2019-01-31T23:12:13.488Z,30.43
2019-01-31T23:14:41.449Z,32.30
2019-01-31T23:17:09.075Z,38.03
2019-01-31T23:19:36.700Z,32.00
2019-01-31T23:22:04.644Z,32.27
2019-01-31T23:24:32.530Z,31.70
2019-01-31T23:27:00.494Z,32.60
2019-01-31T23:29:28.173Z,31.57
2019-01-31T23:31:55.811Z,32.50
2019-01-31T23:34:23.430Z,27.90
2019-01-31T23:36:51.338Z,29.80
2019-01-31T23:39:19.330Z,29.90
2019-01-31T23:41:47.275Z,29.53
2019-01-31T23:44:15.247Z,31.07
2019-01-31T23:46:43.212Z,32.10
2019-01-31T23:49:10.838Z,30.53
2019-01-31T23:51:38.743Z,29.67
2019-01-31T23:54:06.372Z,27.67
2019-01-31T23:56:34.276Z,29.53
2019-01-31T23:59:02.250Z,32.73
